createdAt,value
2022-08-09T00:01:57.580Z,99356.81
2022-08-09T00:04:34.760Z,99350.13
2022-08-09T00:07:10.574Z,99328.81
2022-08-09T00:09:40.626Z,99325.69
2022-08-09T00:12:15.455Z,99305.56
2022-08-09T00:14:56.698Z,99294.56
2022-08-09T00:18:05.381Z,99287.44
2022-08-09T00:20:18.260Z,99281.94
2022-08-09T00:22:48.228Z,99272.09
2022-08-09T00:25:23.126Z,99270.91
2022-08-09T00:28:04.176Z,99279.56
2022-08-09T00:30:34.045Z,99280.75
2022-08-09T00:33:03.995Z,99278.78
2022-08-09T00:35:43.479Z,99280.34
2022-08-09T00:38:14.035Z,99271.69
2022-08-09T00:40:52.446Z,99267.31
2022-08-09T00:44:15.498Z,99264.97
2022-08-09T00:46:28.366Z,99260.66
2022-08-09T00:49:04.106Z,99257.50
2022-08-09T00:51:42.653Z,99256.69
2022-08-09T00:54:31.638Z,99259.84
2022-08-09T00:57:08.852Z,99272.06
2022-08-09T00:59:47.193Z,99278.38
2022-08-09T01:02:24.240Z,99289.00
2022-08-09T01:05:03.249Z,99281.53
2022-08-09T01:08:01.074Z,99267.34
2022-08-09T01:10:35.648Z,99280.75
2022-08-09T01:13:16.757Z,99283.09
2022-08-09T01:15:51.796Z,99285.88
2022-08-09T01:18:31.444Z,99291.00
2022-08-09T01:21:17.490Z,99289.81
2022-08-09T01:24:02.837Z,99294.94
2022-08-09T01:27:09.669Z,99296.50
2022-08-09T01:29:55.751Z,99306.78
2022-08-09T01:32:34.274Z,99302.81
2022-08-09T01:35:28.350Z,99299.69
2022-08-09T01:38:10.795Z,99303.59
2022-08-09T01:40:52.839Z,99294.94
2022-08-09T01:43:50.801Z,99302.84
2022-08-09T01:46:24.167Z,99296.13
2022-08-09T01:49:00.248Z,99295.34
2022-08-09T01:51:44.460Z,99294.16
2022-08-09T01:54:25.628Z,99304.81
2022-08-09T01:56:59.943Z,99313.09
2022-08-09T01:59:41.093Z,99313.88
2022-08-09T02:02:31.299Z,99312.69
2022-08-09T02:05:05.595Z,99325.28
2022-08-09T02:08:38.629Z,99314.25
2022-08-09T02:10:38.756Z,99316.63
2022-08-09T02:13:12.958Z,99309.91
2022-08-09T02:15:50.471Z,99317.41
2022-08-09T02:18:23.863Z,99315.03
2022-08-09T02:20:57.144Z,99319.00
2022-08-09T02:23:39.803Z,99315.84
2022-08-09T02:26:24.822Z,99324.13
2022-08-09T02:29:00.653Z,99319.00
2022-08-09T02:31:36.137Z,99322.53
2022-08-09T02:34:25.779Z,99324.13
2022-08-09T02:37:07.433Z,99333.19
2022-08-09T02:39:49.608Z,99336.72
2022-08-09T02:42:24.795Z,99337.91
2022-08-09T02:45:00.403Z,99341.47
2022-08-09T02:47:46.314Z,99334.75
2022-08-09T02:50:30.969Z,99337.91
2022-08-09T02:53:05.945Z,99340.66
2022-08-09T02:55:53.775Z,99352.47
2022-08-09T02:58:38.054Z,99371.41
2022-08-09T03:01:11.240Z,99364.72
2022-08-09T03:04:16.652Z,99360.38
2022-08-09T03:06:40.379Z,99356.84
2022-08-09T03:09:11.414Z,99354.09
2022-08-09T03:12:09.660Z,99354.47
2022-08-09T03:14:34.413Z,99349.72
2022-08-09T03:17:07.113Z,99342.22
2022-08-09T03:19:57.888Z,99347.75
2022-08-09T03:22:41.827Z,99348.94
2022-08-09T03:28:04.276Z,99351.72
2022-08-09T03:30:41.073Z,99341.50
2022-08-09T03:33:18.913Z,99350.56
2022-08-09T03:36:13.061Z,99353.28
2022-08-09T03:38:46.128Z,99339.88
2022-08-09T03:41:18.420Z,99345.38
2022-08-09T03:44:03.326Z,99333.97
2022-08-09T03:46:38.273Z,99342.63
2022-08-09T03:49:10.263Z,99349.31
2022-08-09T03:51:58.229Z,99346.59
2022-08-09T03:54:34.640Z,99354.06
2022-08-09T03:57:18.099Z,99352.50
2022-08-09T03:59:55.479Z,99352.50
2022-08-09T04:02:28.582Z,99357.63
2022-08-09T04:05:05.872Z,99365.50
2022-08-09T04:07:52.387Z,99365.91
2022-08-09T04:10:28.701Z,99361.19
2022-08-09T04:13:04.245Z,99350.13
2022-08-09T04:16:17.470Z,99354.88
2022-08-09T04:18:25.308Z,99349.28
2022-08-09T04:20:55.070Z,99355.25
2022-08-09T04:23:25.705Z,99359.56
2022-08-09T04:25:56.431Z,99365.09
2022-08-09T04:28:32.919Z,99357.19
2022-08-09T04:31:09.733Z,99351.28
2022-08-09T04:33:52.924Z,99353.66
2022-08-09T04:36:27.713Z,99360.75
2022-08-09T04:39:01.242Z,99352.06
2022-08-09T04:41:33.077Z,99344.59
2022-08-09T04:44:06.380Z,99343.81
2022-08-09T04:46:57.391Z,99358.03
2022-08-09T04:49:54.711Z,99356.44
2022-08-09T04:52:32.483Z,99348.53
2022-08-09T04:55:05.055Z,99340.69
2022-08-09T04:57:54.189Z,99331.19
2022-08-09T05:00:31.648Z,99316.59
2022-08-09T05:03:30.205Z,99322.44
2022-08-09T05:06:04.326Z,99326.81
2022-08-09T05:08:37.282Z,99329.56
2022-08-09T05:11:09.286Z,99323.66
2022-08-09T05:13:40.921Z,99329.56
2022-08-09T05:16:11.379Z,99325.59
2022-08-09T05:18:58.128Z,99321.19
2022-08-09T05:21:29.997Z,99316.88
2022-08-09T05:24:06.855Z,99320.38
2022-08-09T05:26:45.593Z,99325.84
2022-08-09T05:29:21.289Z,99333.38
2022-08-09T05:31:59.098Z,99338.50
2022-08-09T05:34:30.712Z,99320.69
2022-08-09T05:37:06.475Z,99321.78
2022-08-09T05:39:43.927Z,99316.44
2022-08-09T05:42:17.966Z,99320.66
2022-08-09T05:44:52.678Z,99324.38
2022-08-09T05:47:25.103Z,99328.16
2022-08-09T05:50:30.097Z,99329.31
2022-08-09T05:52:53.541Z,99326.91
2022-08-09T05:55:24.451Z,99315.09
2022-08-09T05:57:58.511Z,99321.00
2022-08-09T06:00:32.924Z,99322.63
2022-08-09T06:03:04.534Z,99322.56
2022-08-09T06:05:50.230Z,99326.22
2022-08-09T06:08:31.238Z,99319.94
2022-08-09T06:11:01.501Z,99319.63
2022-08-09T06:13:47.791Z,99317.31
2022-08-09T06:16:18.095Z,99331.63
2022-08-09T06:18:49.594Z,99319.78
2022-08-09T06:24:23.620Z,99319.50
2022-08-09T06:26:53.532Z,99314.38
2022-08-09T06:29:23.542Z,99313.19
2022-08-09T06:32:08.617Z,99313.47
2022-08-09T06:34:39.363Z,99323.09
2022-08-09T06:37:10.318Z,99325.38
2022-08-09T06:39:57.701Z,99326.44
2022-08-09T06:42:33.640Z,99322.47
2022-08-09T06:45:20.429Z,99325.28
2022-08-09T06:48:00.642Z,99314.97
2022-08-09T06:50:32.173Z,99316.22
2022-08-09T06:53:05.089Z,99314.59
2022-08-09T06:55:36.456Z,99318.63
2022-08-09T06:58:07.941Z,99316.34
2022-08-09T07:00:59.558Z,99321.50
2022-08-09T07:03:29.989Z,99325.94
2022-08-09T07:06:05.099Z,99330.66
2022-08-09T07:08:37.014Z,99333.06
2022-08-09T07:11:12.766Z,99333.81
2022-08-09T07:14:05.092Z,99337.44
2022-08-09T07:16:42.974Z,99340.97
2022-08-09T07:19:23.405Z,99342.13
2022-08-09T07:21:57.133Z,99346.81
2022-08-09T07:24:32.710Z,99337.72
2022-08-09T07:27:33.084Z,99340.81
2022-08-09T07:30:05.921Z,99339.16
2022-08-09T07:32:36.896Z,99340.59
2022-08-09T07:35:11.643Z,99340.38
2022-08-09T07:37:43.839Z,99342.91
2022-08-09T07:40:18.271Z,99342.16
2022-08-09T07:42:55.726Z,99326.00
2022-08-09T07:45:40.378Z,99314.06
2022-08-09T07:48:22.389Z,99307.34
2022-08-09T07:51:10.190Z,99317.00
2022-08-09T07:54:05.309Z,99330.22
2022-08-09T07:56:44.977Z,99341.91
2022-08-09T07:59:25.091Z,99341.97
2022-08-09T08:02:04.890Z,99347.72
2022-08-09T08:04:37.324Z,99344.72
2022-08-09T08:07:09.385Z,99343.13
2022-08-09T08:10:07.791Z,99338.44
2022-08-09T08:12:45.664Z,99352.66
2022-08-09T08:15:24.155Z,99357.66
2022-08-09T08:17:58.235Z,99348.06
2022-08-09T08:20:32.761Z,99358.16
2022-08-09T08:23:15.899Z,99352.34
2022-08-09T08:25:50.417Z,99357.03
2022-08-09T08:28:37.632Z,99364.44
2022-08-09T08:31:15.108Z,99363.25
2022-08-09T08:33:52.180Z,99364.69
2022-08-09T08:36:28.918Z,99356.88
2022-08-09T08:39:00.549Z,99356.06
2022-08-09T08:41:50.398Z,99344.53
2022-08-09T08:44:29.379Z,99354.16
2022-08-09T08:47:12.373Z,99349.63
2022-08-09T08:49:46.794Z,99357.44
2022-08-09T08:52:58.267Z,99368.47
2022-08-09T08:55:19.050Z,99363.66
2022-08-09T08:57:58.299Z,99363.63
2022-08-09T09:00:30.186Z,99358.25
2022-08-09T09:03:11.362Z,99360.63
2022-08-09T09:05:58.670Z,99362.38
2022-08-09T09:08:37.870Z,99360.94
2022-08-09T09:11:13.712Z,99367.75
2022-08-09T09:13:57.207Z,99356.84
2022-08-09T09:16:33.670Z,99363.03
2022-08-09T09:22:11.688Z,99340.53
2022-08-09T09:24:46.908Z,99337.09
2022-08-09T09:28:04.184Z,99337.63
2022-08-09T09:30:40.151Z,99338.78
2022-08-09T09:33:16.116Z,99335.72
2022-08-09T09:36:01.346Z,99342.94
2022-08-09T09:38:48.728Z,99340.31
2022-08-09T09:41:49.825Z,99347.44
2022-08-09T09:44:32.011Z,99328.78
2022-08-09T09:47:11.874Z,99336.41
2022-08-09T09:50:07.383Z,99330.69
2022-08-09T09:52:37.374Z,99340.22
2022-08-09T09:55:24.221Z,99336.75
2022-08-09T09:58:17.025Z,99319.84
2022-08-09T10:00:55.944Z,99327.16
2022-08-09T10:03:56.323Z,99324.03
2022-08-09T10:06:27.725Z,99326.84
2022-08-09T10:09:22.751Z,99325.31
2022-08-09T10:12:14.844Z,99322.47
2022-08-09T10:14:54.203Z,99323.78
2022-08-09T10:17:50.288Z,99330.72
2022-08-09T10:20:32.533Z,99325.19
2022-08-09T10:23:20.289Z,99321.19
2022-08-09T10:26:07.447Z,99321.34
2022-08-09T10:28:48.781Z,99320.34
2022-08-09T10:34:33.125Z,99332.16
2022-08-09T10:37:09.639Z,99321.00
2022-08-09T10:39:49.259Z,99329.28
2022-08-09T10:42:20.918Z,99334.19
2022-08-09T10:45:04.434Z,99333.66
2022-08-09T10:48:16.332Z,99342.91
2022-08-09T10:51:05.391Z,99348.06
2022-08-09T10:53:56.456Z,99343.69
2022-08-09T10:56:30.431Z,99344.63
2022-08-09T10:59:30.831Z,99338.47
2022-08-09T11:03:10.837Z,99343.09
2022-08-09T11:05:24.919Z,99346.44
2022-08-09T11:08:51.237Z,99331.97
2022-08-09T11:11:52.124Z,99337.50
2022-08-09T11:14:35.694Z,99345.13
2022-08-09T11:18:02.978Z,99341.63
2022-08-09T11:20:50.092Z,99339.28
2022-08-09T11:23:30.189Z,99328.84
2022-08-09T11:26:01.778Z,99337.50
2022-08-09T11:28:56.518Z,99335.34
2022-08-09T11:31:52.696Z,99345.16
2022-08-09T11:34:35.406Z,99343.78
2022-08-09T11:37:07.362Z,99337.50
2022-08-09T11:40:05.863Z,99333.34
2022-08-09T11:42:49.903Z,99339.25
2022-08-09T11:45:42.059Z,99335.22
2022-08-09T11:48:26.438Z,99336.19
2022-08-09T11:51:38.107Z,99340.25
2022-08-09T11:54:27.971Z,99340.63
2022-08-09T11:58:00.102Z,99337.75
2022-08-09T12:00:34.091Z,99331.59
2022-08-09T12:03:50.310Z,99325.13
2022-08-09T12:05:59.196Z,99326.72
2022-08-09T12:08:31.249Z,99334.13
2022-08-09T12:11:05.357Z,99335.38
2022-08-09T12:14:09.977Z,99330.63
2022-08-09T12:16:40.286Z,99335.97
2022-08-09T12:19:12.320Z,99340.75
2022-08-09T12:21:51.533Z,99324.78
2022-08-09T12:24:26.139Z,99327.00
2022-08-09T12:29:10.494Z,99328.22
2022-08-09T12:30:29.980Z,99326.38
2022-08-09T12:33:03.536Z,99329.50
2022-08-09T12:35:40.822Z,99316.97
2022-08-09T12:38:38.212Z,99331.97
2022-08-09T12:41:13.547Z,99334.28
2022-08-09T12:44:06.984Z,99324.66
2022-08-09T12:46:39.041Z,99333.53
2022-08-09T12:49:10.644Z,99335.00
2022-08-09T12:51:59.954Z,99336.16
2022-08-09T12:55:03.150Z,99324.88
2022-08-09T12:57:42.559Z,99323.91
2022-08-09T13:00:25.101Z,99317.63
2022-08-09T13:02:58.327Z,99309.56
2022-08-09T13:05:51.649Z,99318.75
2022-08-09T13:08:40.171Z,99321.66
2022-08-09T13:11:23.219Z,99324.94
2022-08-09T13:14:41.145Z,99316.91
2022-08-09T13:16:59.512Z,99319.50
2022-08-09T13:20:09.772Z,99318.63
2022-08-09T13:22:36.782Z,99325.63
2022-08-09T13:25:15.399Z,99315.13
2022-08-09T13:27:55.912Z,99319.22
2022-08-09T13:30:50.763Z,99315.63
2022-08-09T13:33:52.609Z,99316.94
2022-08-09T13:36:39.268Z,99315.72
2022-08-09T13:39:34.317Z,99323.59
2022-08-09T13:42:12.116Z,99311.22
2022-08-09T13:44:44.411Z,99313.94
2022-08-09T13:47:31.126Z,99310.88
2022-08-09T13:50:12.752Z,99313.59
2022-08-09T13:52:49.752Z,99320.34
2022-08-09T13:55:20.946Z,99312.75
2022-08-09T13:57:55.912Z,99314.84
2022-08-09T14:00:30.585Z,99316.56
2022-08-09T14:03:04.146Z,99314.69
2022-08-09T14:05:56.850Z,99319.91
2022-08-09T14:08:34.626Z,99310.56
2022-08-09T14:11:15.918Z,99316.13
2022-08-09T14:14:21.933Z,99313.00
2022-08-09T14:16:40.225Z,99320.38
2022-08-09T14:19:13.201Z,99313.34
2022-08-09T14:21:43.353Z,99324.34
2022-08-09T14:24:22.118Z,99324.28
2022-08-09T14:27:03.427Z,99319.03
2022-08-09T14:30:35.477Z,99312.47
2022-08-09T14:32:47.233Z,99324.16
2022-08-09T14:35:19.822Z,99321.81
2022-08-09T14:38:02.331Z,99322.59
2022-08-09T14:41:00.670Z,99319.63
2022-08-09T14:43:46.881Z,99325.69
2022-08-09T14:46:55.588Z,99321.31
2022-08-09T14:49:16.109Z,99326.88
2022-08-09T14:51:46.331Z,99333.72
2022-08-09T14:54:22.418Z,99338.84
2022-08-09T14:56:59.409Z,99336.13
2022-08-09T14:59:29.741Z,99335.31
2022-08-09T15:02:01.806Z,99338.06
2022-08-09T15:04:37.092Z,99332.44
2022-08-09T15:07:10.231Z,99336.44
2022-08-09T15:10:03.778Z,99337.53
2022-08-09T15:12:34.457Z,99344.31
2022-08-09T15:15:08.635Z,99339.91
2022-08-09T15:17:42.200Z,99326.00
2022-08-09T15:21:58.873Z,99329.00
2022-08-09T15:24:02.788Z,99325.19
2022-08-09T15:26:09.167Z,99323.75
2022-08-09T15:28:54.747Z,99324.78
2022-08-09T15:31:28.640Z,99323.78
2022-08-09T15:34:32.341Z,99317.34
2022-08-09T15:37:37.123Z,99316.31
2022-08-09T15:40:20.082Z,99320.00
2022-08-09T15:42:53.719Z,99318.44
2022-08-09T15:45:29.288Z,99306.84
2022-08-09T15:48:06.457Z,99315.75
2022-08-09T15:50:44.110Z,99313.53
2022-08-09T15:53:18.770Z,99317.81
2022-08-09T15:56:29.154Z,99315.66
2022-08-09T15:59:02.428Z,99314.41
2022-08-09T16:01:35.497Z,99306.91
2022-08-09T16:04:13.478Z,99312.72
2022-08-09T16:06:50.615Z,99307.56
2022-08-09T16:09:32.672Z,99314.03
2022-08-09T16:12:17.224Z,99318.50
2022-08-09T16:14:48.316Z,99327.09
2022-08-09T16:17:19.752Z,99326.38
2022-08-09T16:20:04.771Z,99337.31
2022-08-09T16:22:48.861Z,99335.22
2022-08-09T16:25:39.397Z,99330.47
2022-08-09T16:28:13.604Z,99343.63
2022-08-09T16:30:44.594Z,99345.13
2022-08-09T16:33:16.276Z,99347.44
2022-08-09T16:35:57.949Z,99341.13
2022-08-09T16:38:32.538Z,99346.31
2022-08-09T16:41:07.005Z,99341.22
2022-08-09T16:43:40.354Z,99343.69
2022-08-09T16:46:10.801Z,99342.59
2022-08-09T16:48:59.251Z,99348.94
2022-08-09T16:51:34.902Z,99355.91
2022-08-09T16:54:34.578Z,99349.00
2022-08-09T16:57:10.742Z,99354.16
2022-08-09T16:59:44.066Z,99350.75
2022-08-09T17:02:25.564Z,99350.75
2022-08-09T17:04:56.258Z,99353.94
2022-08-09T17:08:43.599Z,99360.00
2022-08-09T17:10:20.891Z,99359.16
2022-08-09T17:12:53.122Z,99364.72
2022-08-09T17:15:30.965Z,99363.56
2022-08-09T17:18:16.752Z,99360.81
2022-08-09T17:20:57.347Z,99367.69
2022-08-09T17:24:20.774Z,99361.78
2022-08-09T17:26:31.621Z,99375.31
2022-08-09T17:29:20.418Z,99364.59
2022-08-09T17:31:52.018Z,99366.00
2022-08-09T17:35:00.757Z,99369.72
2022-08-09T17:37:19.944Z,99373.03
2022-08-09T17:39:55.331Z,99376.69
2022-08-09T17:42:42.129Z,99373.72
2022-08-09T17:45:27.097Z,99377.25
2022-08-09T17:48:02.752Z,99371.44
2022-08-09T17:50:37.059Z,99368.69
2022-08-09T17:53:19.426Z,99370.69
2022-08-09T17:55:57.617Z,99367.22
2022-08-09T17:58:30.618Z,99359.81
2022-08-09T18:01:04.400Z,99357.84
2022-08-09T18:03:34.277Z,99355.19
2022-08-09T18:06:04.396Z,99362.41
2022-08-09T18:08:44.773Z,99370.31
2022-08-09T18:11:16.329Z,99363.63
2022-08-09T18:13:57.263Z,99369.59
2022-08-09T18:16:48.905Z,99356.59
2022-08-09T18:20:54.132Z,99361.00
2022-08-09T18:22:17.303Z,99362.56
2022-08-09T18:24:50.732Z,99367.31
2022-08-09T18:28:02.898Z,99374.84
2022-08-09T18:30:40.709Z,99368.88
2022-08-09T18:33:12.745Z,99374.38
2022-08-09T18:35:59.104Z,99373.63
2022-08-09T18:38:32.175Z,99385.47
2022-08-09T18:41:03.310Z,99382.72
2022-08-09T18:43:35.206Z,99385.88
2022-08-09T18:46:50.301Z,99380.75
2022-08-09T18:49:02.078Z,99377.22
2022-08-09T18:51:38.359Z,99374.47
2022-08-09T18:54:17.694Z,99375.66
2022-08-09T18:56:55.070Z,99372.53
2022-08-09T18:59:27.292Z,99376.84
2022-08-09T19:02:09.079Z,99371.31
2022-08-09T19:04:48.035Z,99372.53
2022-08-09T19:07:34.915Z,99377.69
2022-08-09T19:10:17.282Z,99372.16
2022-08-09T19:12:56.788Z,99380.06
2022-08-09T19:15:49.159Z,99378.06
2022-08-09T19:18:35.227Z,99379.28
2022-08-09T19:21:10.793Z,99373.00
2022-08-09T19:24:37.239Z,99369.41
2022-08-09T19:26:35.152Z,99367.06
2022-08-09T19:29:17.941Z,99373.38
2022-08-09T19:31:51.040Z,99378.53
2022-08-09T19:34:26.275Z,99373.38
2022-08-09T19:36:59.397Z,99371.00
2022-08-09T19:40:02.404Z,99367.88
2022-08-09T19:42:28.239Z,99368.25
2022-08-09T19:44:58.782Z,99370.63
2022-08-09T19:47:29.585Z,99365.88
2022-08-09T19:50:07.862Z,99367.47
2022-08-09T19:52:53.109Z,99363.50
2022-08-09T19:55:25.682Z,99360.75
2022-08-09T19:58:01.470Z,99361.56
2022-08-09T20:00:31.946Z,99363.94
2022-08-09T20:04:16.971Z,99354.88
2022-08-09T20:05:55.564Z,99363.50
2022-08-09T20:08:34.943Z,99363.50
2022-08-09T20:11:07.424Z,99368.22
2022-08-09T20:13:38.434Z,99362.13
2022-08-09T20:16:37.251Z,99365.03
2022-08-09T20:19:42.580Z,99363.88
2022-08-09T20:21:56.503Z,99355.59
2022-08-09T20:24:34.085Z,99358.78
2022-08-09T20:27:08.160Z,99356.41
2022-08-09T20:29:40.604Z,99354.03
2022-08-09T20:32:30.727Z,99363.13
2022-08-09T20:35:05.688Z,99355.22
2022-08-09T20:38:22.043Z,99356.03
2022-08-09T20:40:31.129Z,99362.34
2022-08-09T20:43:18.166Z,99364.72
2022-08-09T20:45:59.542Z,99370.63
2022-08-09T20:48:32.308Z,99375.38
2022-08-09T20:51:03.163Z,99368.66
2022-08-09T20:53:36.888Z,99368.25
2022-08-09T20:56:20.163Z,99375.75
2022-08-09T20:58:54.676Z,99380.88
2022-08-09T21:01:34.462Z,99378.50
2022-08-09T21:05:55.151Z,99371.00
2022-08-09T21:07:12.149Z,99374.94
2022-08-09T21:09:55.676Z,99376.13
2022-08-09T21:15:23.689Z,99377.69
2022-08-09T21:18:11.664Z,99373.00
2022-08-09T21:20:54.865Z,99379.31
2022-08-09T21:23:36.055Z,99369.47
2022-08-09T21:26:17.352Z,99380.91
2022-08-09T21:28:55.994Z,99374.59
2022-08-09T21:31:48.842Z,99375.34
2022-08-09T21:34:29.362Z,99365.53
2022-08-09T21:37:02.731Z,99368.28
2022-08-09T21:39:42.367Z,99359.59
2022-08-09T21:42:16.572Z,99365.09
2022-08-09T21:44:47.404Z,99366.69
2022-08-09T21:47:22.126Z,99361.19
2022-08-09T21:49:56.306Z,99362.78
2022-08-09T21:52:32.676Z,99360.41
2022-08-09T21:55:04.893Z,99357.63
2022-08-09T21:57:38.551Z,99356.44
2022-08-09T22:00:32.476Z,99358.41
2022-08-09T22:03:06.396Z,99358.81
2022-08-09T22:05:42.293Z,99348.56
2022-08-09T22:08:14.609Z,99346.19
2022-08-09T22:11:48.917Z,99345.38
2022-08-09T22:13:37.484Z,99341.84
2022-08-09T22:16:09.688Z,99347.34
2022-08-09T22:18:44.136Z,99338.69
2022-08-09T22:21:44.757Z,99347.75
2022-08-09T22:24:24.193Z,99345.38
2022-08-09T22:26:55.045Z,99349.34
2022-08-09T22:29:28.761Z,99348.56
2022-08-09T22:32:12.677Z,99345.00
2022-08-09T22:35:06.414Z,99343.44
2022-08-09T22:38:06.956Z,99342.25
2022-08-09T22:40:38.694Z,99343.00
2022-08-09T22:44:00.487Z,99336.31
2022-08-09T22:48:11.473Z,99346.16
2022-08-09T22:49:05.537Z,99341.06
2022-08-09T22:51:49.250Z,99344.59
2022-08-09T22:54:23.661Z,99335.94
2022-08-09T22:56:58.621Z,99336.72
2022-08-09T22:59:56.093Z,99343.41
2022-08-09T23:02:20.446Z,99336.72
2022-08-09T23:04:53.607Z,99346.56
2022-08-09T23:08:27.382Z,99335.91
2022-08-09T23:10:34.306Z,99332.78
2022-08-09T23:13:04.023Z,99335.13
2022-08-09T23:15:34.752Z,99334.31
2022-08-09T23:18:04.466Z,99329.59
2022-08-09T23:20:39.762Z,99336.69
2022-08-09T23:23:09.149Z,99331.97
2022-08-09T23:25:39.415Z,99338.25
2022-08-09T23:28:14.630Z,99339.03
2022-08-09T23:30:51.383Z,99343.78
2022-08-09T23:33:22.329Z,99344.19
2022-08-09T23:36:04.623Z,99346.56
2022-08-09T23:38:49.211Z,99353.25
2022-08-09T23:41:27.464Z,99358.00
2022-08-09T23:44:00.201Z,99356.44
2022-08-09T23:46:30.396Z,99365.91
2022-08-09T23:49:01.054Z,99361.56
2022-08-09T23:51:32.214Z,99374.56
2022-08-09T23:54:03.660Z,99365.13
2022-08-09T23:56:52.118Z,99364.31
2022-08-09T23:59:25.886Z,99367.09
